sensor_id;sensor_type;location;lat;lon;timestamp;temperature;humidity
5176;DHT22;2607;50.934;6.934;2023-06-14T00:01:51;22.20;55.20
5176;DHT22;2607;50.934;6.934;2023-06-14T00:04:17;22.10;55.30
5176;DHT22;2607;50.934;6.934;2023-06-14T00:06:44;22.10;55.50
5176;DHT22;2607;50.934;6.934;2023-06-14T00:09:13;22.10;55.60
5176;DHT22;2607;50.934;6.934;2023-06-14T00:11:42;22.10;55.60
5176;DHT22;2607;50.934;6.934;2023-06-14T00:14:08;22.10;55.60
5176;DHT22;2607;50.934;6.934;2023-06-14T00:16:33;22.10;55.80
5176;DHT22;2607;50.934;6.934;2023-06-14T00:19:01;22.00;55.90
5176;DHT22;2607;50.934;6.934;2023-06-14T00:21:29;22.00;56.10
5176;DHT22;2607;50.934;6.934;2023-06-14T00:23:55;22.00;56.20
5176;DHT22;2607;50.934;6.934;2023-06-14T00:26:21;21.90;56.30
5176;DHT22;2607;50.934;6.934;2023-06-14T00:28:46;21.90;56.50
5176;DHT22;2607;50.934;6.934;2023-06-14T00:31:12;21.90;56.50
5176;DHT22;2607;50.934;6.934;2023-06-14T00:33:37;21.90;56.60
5176;DHT22;2607;50.934;6.934;2023-06-14T00:36:03;21.80;56.90
5176;DHT22;2607;50.934;6.934;2023-06-14T00:38:29;21.80;56.80
5176;DHT22;2607;50.934;6.934;2023-06-14T00:40:54;21.80;56.80
5176;DHT22;2607;50.934;6.934;2023-06-14T00:43:20;21.80;56.80
5176;DHT22;2607;50.934;6.934;2023-06-14T00:45:45;21.80;56.80
5176;DHT22;2607;50.934;6.934;2023-06-14T00:48:13;21.70;56.80
5176;DHT22;2607;50.934;6.934;2023-06-14T00:50:39;21.70;56.80
5176;DHT22;2607;50.934;6.934;2023-06-14T00:53:06;21.70;56.80
5176;DHT22;2607;50.934;6.934;2023-06-14T00:55:31;21.60;56.80
5176;DHT22;2607;50.934;6.934;2023-06-14T00:57:58;21.60;56.80
5176;DHT22;2607;50.934;6.934;2023-06-14T01:00:24;21.60;56.80
5176;DHT22;2607;50.934;6.934;2023-06-14T01:02:50;21.50;56.80
5176;DHT22;2607;50.934;6.934;2023-06-14T01:05:16;21.50;56.90
5176;DHT22;2607;50.934;6.934;2023-06-14T01:10:41;21.50;56.90
5176;DHT22;2607;50.934;6.934;2023-06-14T01:13:13;21.50;56.90
5176;DHT22;2607;50.934;6.934;2023-06-14T01:15:42;21.40;56.90
5176;DHT22;2607;50.934;6.934;2023-06-14T01:18:09;21.40;57.20
5176;DHT22;2607;50.934;6.934;2023-06-14T01:20:42;21.40;57.50
5176;DHT22;2607;50.934;6.934;2023-06-14T01:23:10;21.40;57.30
5176;DHT22;2607;50.934;6.934;2023-06-14T01:25:39;21.30;57.00
5176;DHT22;2607;50.934;6.934;2023-06-14T01:28:06;21.30;57.30
5176;DHT22;2607;50.934;6.934;2023-06-14T01:30:39;21.30;58.90
5176;DHT22;2607;50.934;6.934;2023-06-14T01:33:14;21.30;58.10
5176;DHT22;2607;50.934;6.934;2023-06-14T01:35:46;21.30;57.60
5176;DHT22;2607;50.934;6.934;2023-06-14T01:38:13;21.30;57.70
5176;DHT22;2607;50.934;6.934;2023-06-14T01:40:39;21.30;57.90
5176;DHT22;2607;50.934;6.934;2023-06-14T01:43:06;21.20;58.10
5176;DHT22;2607;50.934;6.934;2023-06-14T01:45:33;21.20;58.30
5176;DHT22;2607;50.934;6.934;2023-06-14T01:47:59;21.20;58.60
5176;DHT22;2607;50.934;6.934;2023-06-14T01:50:29;21.10;58.70
5176;DHT22;2607;50.934;6.934;2023-06-14T01:52:55;21.10;59.00
5176;DHT22;2607;50.934;6.934;2023-06-14T01:55:20;21.10;59.20
5176;DHT22;2607;50.934;6.934;2023-06-14T01:57:47;21.00;59.00
5176;DHT22;2607;50.934;6.934;2023-06-14T02:00:14;21.00;58.80
5176;DHT22;2607;50.934;6.934;2023-06-14T02:02:40;21.00;59.00
5176;DHT22;2607;50.934;6.934;2023-06-14T02:05:06;21.00;59.10
5176;DHT22;2607;50.934;6.934;2023-06-14T02:07:33;21.00;58.30
5176;DHT22;2607;50.934;6.934;2023-06-14T02:09:58;20.90;57.90
5176;DHT22;2607;50.934;6.934;2023-06-14T02:12:24;20.90;57.70
5176;DHT22;2607;50.934;6.934;2023-06-14T02:14:50;20.90;57.60
5176;DHT22;2607;50.934;6.934;2023-06-14T02:17:15;20.90;57.70
5176;DHT22;2607;50.934;6.934;2023-06-14T02:19:41;20.80;57.70
5176;DHT22;2607;50.934;6.934;2023-06-14T02:22:07;20.80;57.60
5176;DHT22;2607;50.934;6.934;2023-06-14T02:24:33;20.80;57.60
5176;DHT22;2607;50.934;6.934;2023-06-14T02:26:58;20.80;57.60
5176;DHT22;2607;50.934;6.934;2023-06-14T02:29:24;20.70;57.60
5176;DHT22;2607;50.934;6.934;2023-06-14T02:31:49;20.70;57.70
5176;DHT22;2607;50.934;6.934;2023-06-14T02:34:15;20.70;57.80
5176;DHT22;2607;50.934;6.934;2023-06-14T02:36:45;20.70;57.90
5176;DHT22;2607;50.934;6.934;2023-06-14T02:39:11;20.60;58.10
5176;DHT22;2607;50.934;6.934;2023-06-14T02:41:37;20.60;58.30
5176;DHT22;2607;50.934;6.934;2023-06-14T02:44:03;20.60;58.50
5176;DHT22;2607;50.934;6.934;2023-06-14T02:46:29;20.60;58.50
5176;DHT22;2607;50.934;6.934;2023-06-14T02:48:54;20.60;58.60
5176;DHT22;2607;50.934;6.934;2023-06-14T02:51:20;20.60;58.80
5176;DHT22;2607;50.934;6.934;2023-06-14T02:53:45;20.60;58.70
5176;DHT22;2607;50.934;6.934;2023-06-14T02:56:11;20.50;58.70
5176;DHT22;2607;50.934;6.934;2023-06-14T02:58:37;20.50;58.90
5176;DHT22;2607;50.934;6.934;2023-06-14T03:01:04;20.50;59.00
5176;DHT22;2607;50.934;6.934;2023-06-14T03:03:31;20.40;59.10
5176;DHT22;2607;50.934;6.934;2023-06-14T03:05:57;20.40;59.30
5176;DHT22;2607;50.934;6.934;2023-06-14T03:08:22;20.40;59.50
5176;DHT22;2607;50.934;6.934;2023-06-14T03:10:53;20.40;59.60
5176;DHT22;2607;50.934;6.934;2023-06-14T03:13:19;20.40;59.80
5176;DHT22;2607;50.934;6.934;2023-06-14T03:15:48;20.40;59.90
5176;DHT22;2607;50.934;6.934;2023-06-14T03:18:19;20.30;60.10
5176;DHT22;2607;50.934;6.934;2023-06-14T03:20:44;20.30;60.00
5176;DHT22;2607;50.934;6.934;2023-06-14T03:25:37;20.30;59.20
5176;DHT22;2607;50.934;6.934;2023-06-14T03:28:04;20.30;60.00
5176;DHT22;2607;50.934;6.934;2023-06-14T03:30:30;20.30;60.20
5176;DHT22;2607;50.934;6.934;2023-06-14T03:32:56;20.30;60.10
5176;DHT22;2607;50.934;6.934;2023-06-14T03:35:22;20.20;60.10
5176;DHT22;2607;50.934;6.934;2023-06-14T03:37:48;20.20;62.10
5176;DHT22;2607;50.934;6.934;2023-06-14T03:40:17;20.20;60.90
5176;DHT22;2607;50.934;6.934;2023-06-14T03:42:42;20.20;60.50
5176;DHT22;2607;50.934;6.934;2023-06-14T03:45:08;20.20;60.60
5176;DHT22;2607;50.934;6.934;2023-06-14T03:47:34;20.20;60.70
5176;DHT22;2607;50.934;6.934;2023-06-14T03:50:01;20.20;60.80
5176;DHT22;2607;50.934;6.934;2023-06-14T03:52:27;20.20;60.60
5176;DHT22;2607;50.934;6.934;2023-06-14T03:54:53;20.20;60.40
5176;DHT22;2607;50.934;6.934;2023-06-14T03:57:19;20.10;60.40
5176;DHT22;2607;50.934;6.934;2023-06-14T03:59:45;20.10;60.50
5176;DHT22;2607;50.934;6.934;2023-06-14T04:02:12;20.10;60.60
5176;DHT22;2607;50.934;6.934;2023-06-14T04:04:40;20.10;60.80
5176;DHT22;2607;50.934;6.934;2023-06-14T04:07:09;20.10;60.90
5176;DHT22;2607;50.934;6.934;2023-06-14T04:09:35;20.10;61.00
5176;DHT22;2607;50.934;6.934;2023-06-14T04:12:01;20.10;61.00
5176;DHT22;2607;50.934;6.934;2023-06-14T04:14:26;20.10;61.00
5176;DHT22;2607;50.934;6.934;2023-06-14T04:16:52;20.00;61.10
5176;DHT22;2607;50.934;6.934;2023-06-14T04:19:17;20.00;61.20
5176;DHT22;2607;50.934;6.934;2023-06-14T04:21:43;20.00;61.30
5176;DHT22;2607;50.934;6.934;2023-06-14T04:24:08;20.00;61.20
5176;DHT22;2607;50.934;6.934;2023-06-14T04:26:39;20.00;61.20
5176;DHT22;2607;50.934;6.934;2023-06-14T04:29:05;20.00;61.30
5176;DHT22;2607;50.934;6.934;2023-06-14T04:31:32;20.00;61.30
5176;DHT22;2607;50.934;6.934;2023-06-14T04:34:03;20.00;61.30
5176;DHT22;2607;50.934;6.934;2023-06-14T04:36:33;20.00;61.30
5176;DHT22;2607;50.934;6.934;2023-06-14T04:39:07;20.00;61.70
5176;DHT22;2607;50.934;6.934;2023-06-14T04:41:33;20.00;61.60
5176;DHT22;2607;50.934;6.934;2023-06-14T04:44:00;20.00;61.50
5176;DHT22;2607;50.934;6.934;2023-06-14T04:46:29;20.00;61.70
5176;DHT22;2607;50.934;6.934;2023-06-14T04:48:57;20.00;61.80
5176;DHT22;2607;50.934;6.934;2023-06-14T04:51:23;20.10;61.90
5176;DHT22;2607;50.934;6.934;2023-06-14T04:53:56;20.10;62.00
5176;DHT22;2607;50.934;6.934;2023-06-14T04:56:24;20.10;62.30
5176;DHT22;2607;50.934;6.934;2023-06-14T04:58:50;20.10;64.50
5176;DHT22;2607;50.934;6.934;2023-06-14T05:01:17;20.10;64.00
5176;DHT22;2607;50.934;6.934;2023-06-14T05:03:42;20.20;63.30
5176;DHT22;2607;50.934;6.934;2023-06-14T05:06:10;20.20;65.00
5176;DHT22;2607;50.934;6.934;2023-06-14T05:08:37;20.20;64.20
5176;DHT22;2607;50.934;6.934;2023-06-14T05:11:02;20.30;64.00
5176;DHT22;2607;50.934;6.934;2023-06-14T05:13:28;20.30;62.70
5176;DHT22;2607;50.934;6.934;2023-06-14T05:15:53;20.40;62.10
5176;DHT22;2607;50.934;6.934;2023-06-14T05:18:19;20.50;61.60
5176;DHT22;2607;50.934;6.934;2023-06-14T05:20:45;20.50;60.90
5176;DHT22;2607;50.934;6.934;2023-06-14T05:23:11;20.50;60.60
5176;DHT22;2607;50.934;6.934;2023-06-14T05:25:45;20.60;60.30
5176;DHT22;2607;50.934;6.934;2023-06-14T05:28:11;20.60;59.80
5176;DHT22;2607;50.934;6.934;2023-06-14T05:30:38;20.70;59.30
5176;DHT22;2607;50.934;6.934;2023-06-14T05:33:05;20.70;59.10
5176;DHT22;2607;50.934;6.934;2023-06-14T05:35:30;20.70;59.00
5176;DHT22;2607;50.934;6.934;2023-06-14T05:37:56;20.80;59.20
5176;DHT22;2607;50.934;6.934;2023-06-14T05:40:22;20.80;59.40
5176;DHT22;2607;50.934;6.934;2023-06-14T05:42:47;20.90;59.40
5176;DHT22;2607;50.934;6.934;2023-06-14T05:45:13;20.90;59.00
5176;DHT22;2607;50.934;6.934;2023-06-14T05:47:40;21.00;58.80
5176;DHT22;2607;50.934;6.934;2023-06-14T05:50:06;21.00;58.80
5176;DHT22;2607;50.934;6.934;2023-06-14T05:52:32;21.00;58.80
5176;DHT22;2607;50.934;6.934;2023-06-14T05:54:57;21.00;58.90
5176;DHT22;2607;50.934;6.934;2023-06-14T05:57:23;21.00;59.20
5176;DHT22;2607;50.934;6.934;2023-06-14T05:59:48;21.10;58.70
5176;DHT22;2607;50.934;6.934;2023-06-14T06:02:15;21.20;58.40
5176;DHT22;2607;50.934;6.934;2023-06-14T06:04:41;21.20;58.20
5176;DHT22;2607;50.934;6.934;2023-06-14T06:07:06;21.20;58.40
5176;DHT22;2607;50.934;6.934;2023-06-14T06:09:32;21.30;58.30
5176;DHT22;2607;50.934;6.934;2023-06-14T06:11:58;21.30;58.40
5176;DHT22;2607;50.934;6.934;2023-06-14T06:14:23;21.30;58.60
5176;DHT22;2607;50.934;6.934;2023-06-14T06:16:49;21.30;58.30
5176;DHT22;2607;50.934;6.934;2023-06-14T06:19:14;21.30;58.10
5176;DHT22;2607;50.934;6.934;2023-06-14T06:21:40;21.30;58.20
5176;DHT22;2607;50.934;6.934;2023-06-14T06:24:06;21.40;58.20
5176;DHT22;2607;50.934;6.934;2023-06-14T06:26:32;21.40;57.90
5176;DHT22;2607;50.934;6.934;2023-06-14T06:28:58;21.50;57.70
5176;DHT22;2607;50.934;6.934;2023-06-14T06:31:24;21.50;57.60
5176;DHT22;2607;50.934;6.934;2023-06-14T06:33:51;21.50;57.50
5176;DHT22;2607;50.934;6.934;2023-06-14T06:36:16;21.50;57.50
5176;DHT22;2607;50.934;6.934;2023-06-14T06:38:42;21.50;57.60
5176;DHT22;2607;50.934;6.934;2023-06-14T06:41:07;21.50;57.70
5176;DHT22;2607;50.934;6.934;2023-06-14T06:43:33;21.60;57.90
5176;DHT22;2607;50.934;6.934;2023-06-14T06:45:59;21.60;57.80
5176;DHT22;2607;50.934;6.934;2023-06-14T06:48:24;21.60;57.90
5176;DHT22;2607;50.934;6.934;2023-06-14T06:50:50;21.60;58.10
5176;DHT22;2607;50.934;6.934;2023-06-14T06:53:16;21.60;58.00
5176;DHT22;2607;50.934;6.934;2023-06-14T06:55:43;21.60;58.00
5176;DHT22;2607;50.934;6.934;2023-06-14T06:58:09;21.70;58.20
5176;DHT22;2607;50.934;6.934;2023-06-14T07:00:35;21.70;58.10
5176;DHT22;2607;50.934;6.934;2023-06-14T07:03:00;21.70;58.30
5176;DHT22;2607;50.934;6.934;2023-06-14T07:05:26;21.70;58.40
5176;DHT22;2607;50.934;6.934;2023-06-14T07:07:52;21.70;58.40
5176;DHT22;2607;50.934;6.934;2023-06-14T07:10:18;21.70;58.20
5176;DHT22;2607;50.934;6.934;2023-06-14T07:12:44;21.70;58.10
5176;DHT22;2607;50.934;6.934;2023-06-14T07:15:09;21.80;58.40
5176;DHT22;2607;50.934;6.934;2023-06-14T07:17:35;21.80;58.40
5176;DHT22;2607;50.934;6.934;2023-06-14T07:20:03;21.80;58.50
5176;DHT22;2607;50.934;6.934;2023-06-14T07:22:40;21.80;58.40
5176;DHT22;2607;50.934;6.934;2023-06-14T07:25:10;21.80;58.30
5176;DHT22;2607;50.934;6.934;2023-06-14T07:27:39;21.90;58.10
5176;DHT22;2607;50.934;6.934;2023-06-14T07:30:06;21.90;57.70
5176;DHT22;2607;50.934;6.934;2023-06-14T07:32:32;21.90;58.20
5176;DHT22;2607;50.934;6.934;2023-06-14T07:34:57;21.90;57.50
5176;DHT22;2607;50.934;6.934;2023-06-14T07:37:23;21.90;57.90
5176;DHT22;2607;50.934;6.934;2023-06-14T07:39:48;21.90;57.70
5176;DHT22;2607;50.934;6.934;2023-06-14T07:42:14;21.90;57.30
5176;DHT22;2607;50.934;6.934;2023-06-14T07:44:40;21.90;57.10
5176;DHT22;2607;50.934;6.934;2023-06-14T07:47:05;21.90;57.40
5176;DHT22;2607;50.934;6.934;2023-06-14T07:49:31;21.90;57.60
5176;DHT22;2607;50.934;6.934;2023-06-14T07:51:56;22.00;57.60
5176;DHT22;2607;50.934;6.934;2023-06-14T07:54:22;22.00;57.30
5176;DHT22;2607;50.934;6.934;2023-06-14T07:56:51;22.10;57.40
5176;DHT22;2607;50.934;6.934;2023-06-14T07:59:17;22.10;57.20
5176;DHT22;2607;50.934;6.934;2023-06-14T08:01:43;22.10;57.50
5176;DHT22;2607;50.934;6.934;2023-06-14T08:04:16;22.20;56.60
5176;DHT22;2607;50.934;6.934;2023-06-14T08:06:41;22.20;55.60
5176;DHT22;2607;50.934;6.934;2023-06-14T08:09:10;22.20;55.10
5176;DHT22;2607;50.934;6.934;2023-06-14T08:11:36;22.30;54.80
5176;DHT22;2607;50.934;6.934;2023-06-14T08:14:02;22.30;54.60
5176;DHT22;2607;50.934;6.934;2023-06-14T08:16:27;22.30;54.20
5176;DHT22;2607;50.934;6.934;2023-06-14T08:18:53;22.40;54.20
5176;DHT22;2607;50.934;6.934;2023-06-14T08:21:18;22.40;53.70
5176;DHT22;2607;50.934;6.934;2023-06-14T08:23:44;22.50;52.20
5176;DHT22;2607;50.934;6.934;2023-06-14T08:26:10;22.50;51.80
5176;DHT22;2607;50.934;6.934;2023-06-14T08:28:36;22.50;51.50
5176;DHT22;2607;50.934;6.934;2023-06-14T08:31:01;22.50;51.40
5176;DHT22;2607;50.934;6.934;2023-06-14T08:33:27;22.60;51.40
5176;DHT22;2607;50.934;6.934;2023-06-14T08:35:52;22.60;50.90
5176;DHT22;2607;50.934;6.934;2023-06-14T08:38:18;22.70;50.20
5176;DHT22;2607;50.934;6.934;2023-06-14T08:40:45;22.80;47.10
5176;DHT22;2607;50.934;6.934;2023-06-14T08:43:13;22.80;46.90
5176;DHT22;2607;50.934;6.934;2023-06-14T08:45:38;22.80;47.20
5176;DHT22;2607;50.934;6.934;2023-06-14T08:48:07;22.80;47.50
5176;DHT22;2607;50.934;6.934;2023-06-14T08:50:33;22.90;47.80
5176;DHT22;2607;50.934;6.934;2023-06-14T08:53:01;22.90;48.10
5176;DHT22;2607;50.934;6.934;2023-06-14T08:55:28;23.00;48.10
5176;DHT22;2607;50.934;6.934;2023-06-14T08:57:56;23.10;47.60
5176;DHT22;2607;50.934;6.934;2023-06-14T09:00:24;23.20;47.70
5176;DHT22;2607;50.934;6.934;2023-06-14T09:02:50;23.20;47.70
5176;DHT22;2607;50.934;6.934;2023-06-14T09:05:22;23.30;47.30
5176;DHT22;2607;50.934;6.934;2023-06-14T09:07:49;23.40;47.30
5176;DHT22;2607;50.934;6.934;2023-06-14T09:10:16;23.50;47.00
5176;DHT22;2607;50.934;6.934;2023-06-14T09:12:43;23.50;47.40
5176;DHT22;2607;50.934;6.934;2023-06-14T09:15:09;23.60;46.90
5176;DHT22;2607;50.934;6.934;2023-06-14T09:17:36;23.60;46.80
5176;DHT22;2607;50.934;6.934;2023-06-14T09:20:06;23.70;47.10
5176;DHT22;2607;50.934;6.934;2023-06-14T09:22:32;23.80;47.30
5176;DHT22;2607;50.934;6.934;2023-06-14T09:24:59;23.90;46.70
5176;DHT22;2607;50.934;6.934;2023-06-14T09:27:28;24.00;46.40
5176;DHT22;2607;50.934;6.934;2023-06-14T09:29:55;24.10;46.40
5176;DHT22;2607;50.934;6.934;2023-06-14T09:32:21;24.20;45.70
5176;DHT22;2607;50.934;6.934;2023-06-14T09:34:47;24.30;45.30
5176;DHT22;2607;50.934;6.934;2023-06-14T09:37:13;24.40;45.20
5176;DHT22;2607;50.934;6.934;2023-06-14T09:39:52;24.40;45.30
5176;DHT22;2607;50.934;6.934;2023-06-14T09:42:18;24.60;45.50
5176;DHT22;2607;50.934;6.934;2023-06-14T09:44:48;24.60;45.20
5176;DHT22;2607;50.934;6.934;2023-06-14T09:47:15;24.70;45.20
5176;DHT22;2607;50.934;6.934;2023-06-14T09:49:42;24.80;45.10
5176;DHT22;2607;50.934;6.934;2023-06-14T09:52:12;24.80;44.90
5176;DHT22;2607;50.934;6.934;2023-06-14T09:54:43;24.90;45.30
5176;DHT22;2607;50.934;6.934;2023-06-14T09:57:13;25.00;45.30
5176;DHT22;2607;50.934;6.934;2023-06-14T09:59:43;25.10;44.90
5176;DHT22;2607;50.934;6.934;2023-06-14T10:02:28;25.20;44.30
5176;DHT22;2607;50.934;6.934;2023-06-14T10:05:07;25.20;44.30
5176;DHT22;2607;50.934;6.934;2023-06-14T10:08:00;25.10;44.50
5176;DHT22;2607;50.934;6.934;2023-06-14T10:10:29;25.20;44.90
5176;DHT22;2607;50.934;6.934;2023-06-14T10:12:56;25.30;45.50
5176;DHT22;2607;50.934;6.934;2023-06-14T10:15:32;25.30;44.60
5176;DHT22;2607;50.934;6.934;2023-06-14T10:18:17;25.40;44.20
5176;DHT22;2607;50.934;6.934;2023-06-14T10:23:45;25.40;44.30
5176;DHT22;2607;50.934;6.934;2023-06-14T10:26:23;25.40;44.60
5176;DHT22;2607;50.934;6.934;2023-06-14T10:29:07;25.50;45.40
5176;DHT22;2607;50.934;6.934;2023-06-14T10:31:41;25.50;45.00
5176;DHT22;2607;50.934;6.934;2023-06-14T10:34:07;25.50;45.10
5176;DHT22;2607;50.934;6.934;2023-06-14T10:36:33;25.60;45.30
5176;DHT22;2607;50.934;6.934;2023-06-14T10:39:08;25.70;45.50
5176;DHT22;2607;50.934;6.934;2023-06-14T10:41:37;25.80;45.40
5176;DHT22;2607;50.934;6.934;2023-06-14T10:46:38;26.00;44.60
5176;DHT22;2607;50.934;6.934;2023-06-14T10:49:04;26.00;44.80
5176;DHT22;2607;50.934;6.934;2023-06-14T10:51:38;26.00;44.50
5176;DHT22;2607;50.934;6.934;2023-06-14T10:54:12;26.00;44.70
5176;DHT22;2607;50.934;6.934;2023-06-14T10:56:47;26.00;44.80
5176;DHT22;2607;50.934;6.934;2023-06-14T10:59:14;26.10;44.50
5176;DHT22;2607;50.934;6.934;2023-06-14T11:04:21;26.20;44.00
5176;DHT22;2607;50.934;6.934;2023-06-14T11:06:49;26.30;43.80
5176;DHT22;2607;50.934;6.934;2023-06-14T11:09:46;26.30;43.10
5176;DHT22;2607;50.934;6.934;2023-06-14T11:12:10;26.30;43.40
5176;DHT22;2607;50.934;6.934;2023-06-14T11:14:36;26.40;43.40
5176;DHT22;2607;50.934;6.934;2023-06-14T11:17:02;26.40;43.30
5176;DHT22;2607;50.934;6.934;2023-06-14T11:19:28;26.50;43.40
5176;DHT22;2607;50.934;6.934;2023-06-14T11:21:54;26.50;43.60
5176;DHT22;2607;50.934;6.934;2023-06-14T11:24:20;26.50;44.70
5176;DHT22;2607;50.934;6.934;2023-06-14T11:26:46;26.60;44.50
5176;DHT22;2607;50.934;6.934;2023-06-14T11:29:15;26.60;44.30
5176;DHT22;2607;50.934;6.934;2023-06-14T11:31:43;26.60;44.50
5176;DHT22;2607;50.934;6.934;2023-06-14T11:34:10;26.60;45.10
5176;DHT22;2607;50.934;6.934;2023-06-14T11:36:35;26.60;45.50
5176;DHT22;2607;50.934;6.934;2023-06-14T11:39:03;26.70;46.00
5176;DHT22;2607;50.934;6.934;2023-06-14T11:41:40;26.80;45.90
5176;DHT22;2607;50.934;6.934;2023-06-14T11:44:06;26.90;46.30
5176;DHT22;2607;50.934;6.934;2023-06-14T11:46:32;27.00;46.40
5176;DHT22;2607;50.934;6.934;2023-06-14T11:48:58;27.20;47.10
5176;DHT22;2607;50.934;6.934;2023-06-14T11:51:24;27.30;45.90
5176;DHT22;2607;50.934;6.934;2023-06-14T11:53:49;27.30;45.70
5176;DHT22;2607;50.934;6.934;2023-06-14T11:56:15;27.20;45.90
5176;DHT22;2607;50.934;6.934;2023-06-14T11:58:43;27.20;46.40
5176;DHT22;2607;50.934;6.934;2023-06-14T12:01:09;27.30;46.50
5176;DHT22;2607;50.934;6.934;2023-06-14T12:03:34;27.30;46.40
5176;DHT22;2607;50.934;6.934;2023-06-14T12:06:04;27.40;46.40
5176;DHT22;2607;50.934;6.934;2023-06-14T12:08:37;27.30;46.40
5176;DHT22;2607;50.934;6.934;2023-06-14T12:11:07;27.20;46.30
5176;DHT22;2607;50.934;6.934;2023-06-14T12:13:38;27.20;46.40
5176;DHT22;2607;50.934;6.934;2023-06-14T12:16:09;27.30;46.50
5176;DHT22;2607;50.934;6.934;2023-06-14T12:18:37;27.40;45.40
5176;DHT22;2607;50.934;6.934;2023-06-14T12:21:06;27.40;44.40
5176;DHT22;2607;50.934;6.934;2023-06-14T12:26:07;27.20;45.00
5176;DHT22;2607;50.934;6.934;2023-06-14T12:28:33;27.10;45.20
5176;DHT22;2607;50.934;6.934;2023-06-14T12:30:58;27.10;45.50
5176;DHT22;2607;50.934;6.934;2023-06-14T12:33:24;27.20;45.00
5176;DHT22;2607;50.934;6.934;2023-06-14T12:35:50;27.40;44.80
5176;DHT22;2607;50.934;6.934;2023-06-14T12:38:16;27.50;44.60
5176;DHT22;2607;50.934;6.934;2023-06-14T12:40:42;27.60;44.50
5176;DHT22;2607;50.934;6.934;2023-06-14T12:43:08;27.60;44.10
5176;DHT22;2607;50.934;6.934;2023-06-14T12:45:33;27.60;44.50
5176;DHT22;2607;50.934;6.934;2023-06-14T12:47:59;27.50;44.70
5176;DHT22;2607;50.934;6.934;2023-06-14T12:50:24;27.30;44.80
5176;DHT22;2607;50.934;6.934;2023-06-14T12:52:50;27.20;45.00
5176;DHT22;2607;50.934;6.934;2023-06-14T12:55:16;27.10;45.10
5176;DHT22;2607;50.934;6.934;2023-06-14T12:57:41;27.00;45.60
5176;DHT22;2607;50.934;6.934;2023-06-14T13:00:08;27.10;45.60
5176;DHT22;2607;50.934;6.934;2023-06-14T13:02:34;27.30;45.50
5176;DHT22;2607;50.934;6.934;2023-06-14T13:05:00;27.40;45.50
5176;DHT22;2607;50.934;6.934;2023-06-14T13:07:26;27.40;45.40
5176;DHT22;2607;50.934;6.934;2023-06-14T13:09:51;27.30;45.40
5176;DHT22;2607;50.934;6.934;2023-06-14T13:12:17;27.30;45.40
5176;DHT22;2607;50.934;6.934;2023-06-14T13:14:42;27.40;45.40
5176;DHT22;2607;50.934;6.934;2023-06-14T13:17:09;27.60;45.10
5176;DHT22;2607;50.934;6.934;2023-06-14T13:19:35;27.70;45.10
5176;DHT22;2607;50.934;6.934;2023-06-14T13:22:01;27.80;44.80
5176;DHT22;2607;50.934;6.934;2023-06-14T13:24:26;28.00;45.00
5176;DHT22;2607;50.934;6.934;2023-06-14T13:26:53;28.00;44.20
5176;DHT22;2607;50.934;6.934;2023-06-14T13:29:19;28.00;44.60
5176;DHT22;2607;50.934;6.934;2023-06-14T13:31:44;28.00;44.00
5176;DHT22;2607;50.934;6.934;2023-06-14T13:34:10;28.10;43.90
5176;DHT22;2607;50.934;6.934;2023-06-14T13:36:36;28.10;44.10
5176;DHT22;2607;50.934;6.934;2023-06-14T13:39:01;28.10;44.00
5176;DHT22;2607;50.934;6.934;2023-06-14T13:41:28;28.10;44.00
5176;DHT22;2607;50.934;6.934;2023-06-14T13:43:59;28.10;44.10
5176;DHT22;2607;50.934;6.934;2023-06-14T13:46:25;28.10;43.70
5176;DHT22;2607;50.934;6.934;2023-06-14T13:48:51;28.00;43.30
5176;DHT22;2607;50.934;6.934;2023-06-14T13:51:17;28.00;43.50
5176;DHT22;2607;50.934;6.934;2023-06-14T13:53:46;28.00;43.40
5176;DHT22;2607;50.934;6.934;2023-06-14T13:56:12;28.00;43.50
5176;DHT22;2607;50.934;6.934;2023-06-14T13:58:38;28.10;43.70
5176;DHT22;2607;50.934;6.934;2023-06-14T14:01:03;28.10;43.60
5176;DHT22;2607;50.934;6.934;2023-06-14T14:03:29;28.00;43.60
5176;DHT22;2607;50.934;6.934;2023-06-14T14:05:54;28.00;43.60
5176;DHT22;2607;50.934;6.934;2023-06-14T14:08:20;28.00;43.60
5176;DHT22;2607;50.934;6.934;2023-06-14T14:10:45;27.90;43.40
5176;DHT22;2607;50.934;6.934;2023-06-14T14:13:12;28.00;43.30
5176;DHT22;2607;50.934;6.934;2023-06-14T14:15:37;27.90;43.40
5176;DHT22;2607;50.934;6.934;2023-06-14T14:18:03;27.80;43.20
5176;DHT22;2607;50.934;6.934;2023-06-14T14:20:30;27.80;43.30
5176;DHT22;2607;50.934;6.934;2023-06-14T14:22:56;27.80;43.20
5176;DHT22;2607;50.934;6.934;2023-06-14T14:25:22;27.80;43.10
5176;DHT22;2607;50.934;6.934;2023-06-14T14:27:47;27.80;43.00
5176;DHT22;2607;50.934;6.934;2023-06-14T14:30:13;27.70;43.00
5176;DHT22;2607;50.934;6.934;2023-06-14T14:32:40;27.70;43.20
5176;DHT22;2607;50.934;6.934;2023-06-14T14:35:06;27.70;43.40
5176;DHT22;2607;50.934;6.934;2023-06-14T14:37:32;27.80;43.60
5176;DHT22;2607;50.934;6.934;2023-06-14T14:39:57;27.70;43.40
5176;DHT22;2607;50.934;6.934;2023-06-14T14:42:23;27.80;43.40
5176;DHT22;2607;50.934;6.934;2023-06-14T14:44:48;27.80;43.60
5176;DHT22;2607;50.934;6.934;2023-06-14T14:47:14;27.80;43.60
5176;DHT22;2607;50.934;6.934;2023-06-14T14:49:39;27.90;43.70
5176;DHT22;2607;50.934;6.934;2023-06-14T14:52:05;27.90;43.40
5176;DHT22;2607;50.934;6.934;2023-06-14T14:54:31;27.80;43.40
5176;DHT22;2607;50.934;6.934;2023-06-14T14:56:56;27.70;43.40
5176;DHT22;2607;50.934;6.934;2023-06-14T14:59:22;27.60;43.80
5176;DHT22;2607;50.934;6.934;2023-06-14T15:01:48;27.40;43.50
5176;DHT22;2607;50.934;6.934;2023-06-14T15:04:13;27.30;43.80
5176;DHT22;2607;50.934;6.934;2023-06-14T15:06:39;27.20;44.00
5176;DHT22;2607;50.934;6.934;2023-06-14T15:09:07;27.30;44.10
5176;DHT22;2607;50.934;6.934;2023-06-14T15:11:33;27.30;44.10
5176;DHT22;2607;50.934;6.934;2023-06-14T15:13:58;27.30;44.20
5176;DHT22;2607;50.934;6.934;2023-06-14T15:16:24;27.20;44.40
5176;DHT22;2607;50.934;6.934;2023-06-14T15:18:50;27.20;44.50
5176;DHT22;2607;50.934;6.934;2023-06-14T15:21:15;27.20;44.70
5176;DHT22;2607;50.934;6.934;2023-06-14T15:23:41;27.20;44.80
5176;DHT22;2607;50.934;6.934;2023-06-14T15:26:06;27.20;44.70
5176;DHT22;2607;50.934;6.934;2023-06-14T15:28:32;27.10;44.60
5176;DHT22;2607;50.934;6.934;2023-06-14T15:30:58;27.10;45.00
5176;DHT22;2607;50.934;6.934;2023-06-14T15:33:24;27.00;44.80
5176;DHT22;2607;50.934;6.934;2023-06-14T15:35:50;26.90;44.70
5176;DHT22;2607;50.934;6.934;2023-06-14T15:38:15;26.70;44.80
5176;DHT22;2607;50.934;6.934;2023-06-14T15:40:41;26.60;45.00
5176;DHT22;2607;50.934;6.934;2023-06-14T15:43:06;26.40;45.20
5176;DHT22;2607;50.934;6.934;2023-06-14T15:45:32;26.40;45.10
5176;DHT22;2607;50.934;6.934;2023-06-14T15:47:58;26.30;45.10
5176;DHT22;2607;50.934;6.934;2023-06-14T15:50:25;26.30;45.30
5176;DHT22;2607;50.934;6.934;2023-06-14T15:52:51;26.30;45.30
5176;DHT22;2607;50.934;6.934;2023-06-14T15:55:16;26.40;45.30
5176;DHT22;2607;50.934;6.934;2023-06-14T15:57:42;26.50;45.40
5176;DHT22;2607;50.934;6.934;2023-06-14T16:00:08;26.50;45.10
5176;DHT22;2607;50.934;6.934;2023-06-14T16:02:33;26.50;45.00
5176;DHT22;2607;50.934;6.934;2023-06-14T16:04:59;26.40;45.00
5176;DHT22;2607;50.934;6.934;2023-06-14T16:07:25;26.40;45.30
5176;DHT22;2607;50.934;6.934;2023-06-14T16:09:50;26.30;45.40
5176;DHT22;2607;50.934;6.934;2023-06-14T16:12:16;26.30;45.50
5176;DHT22;2607;50.934;6.934;2023-06-14T16:14:41;26.30;45.70
5176;DHT22;2607;50.934;6.934;2023-06-14T16:17:07;26.30;45.70